Time;durP1;ratioP1;P1;durP2;ratioP2;P2;SDS_P1;SDS_P2;PMS_P1;PMS_P2;Temp;Humidity;BMP_temperature;BMP_pressure;BME280_temperature;BME280_humidity;BME280_pressure;Samples;Min_cycle;Max_cycle;Signal;HPM_P1;HPM_P2
2021/12/30 00:02:09;;;;;;;;;;;;;;;;;;5044921;28;19913;-78
2021/12/30 00:04:35;;;;;;;;;;;;;;;;;;5049010;28;19919;-78
2021/12/30 00:07:01;;;;;;;;;;;;;;;;;;5052826;28;19983;-78
2021/12/30 00:09:28;;;;;;;;;;;;;;;;;;5049502;28;20549;-77
2021/12/30 00:14:39;;;;;;;;;;;;;;;;;;5047998;28;20407;-78
2021/12/30 00:17:05;;;;;;;;;;;;;;;;;;5032793;28;19908;-77
2021/12/30 00:19:31;;;;;;;;;;;;;;;;;;5034953;28;20403;-77
2021/12/30 00:21:56;;;;;;;;;;;;;;;;;;5035587;28;19999;-77
2021/12/30 00:24:22;;;;;;;;;;;;;;;;;;5034575;28;19917;-78
2021/12/30 00:26:48;;;;;;;;;;;;;;;;;;5053519;28;19921;-77
2021/12/30 00:29:14;;;;;;;;;;;;;;;;;;5027236;28;20275;-77
2021/12/30 00:31:40;;;;;;;;;;;;;;;;;;5046613;28;19927;-77
2021/12/30 00:34:06;;;;;;;;;;;;;;;;;;5033382;28;19909;-77
2021/12/30 00:36:32;;;;;;;;;;;;;;;;;;5035836;28;19917;-78
2021/12/30 00:38:58;;;;;;;;;;;;;;;;;;5053996;28;19920;-77
2021/12/30 00:41:24;;;;;;;;;;;;;;;;;;5053674;28;19909;-77
2021/12/30 00:43:49;;;;;;;;;;;;;;;;;;5035907;28;19912;-77
2021/12/30 00:46:15;;;;;;;;;;;;;;;;;;5053882;28;19920;-77
2021/12/30 00:48:41;;;;;;;;;;;;;;;;;;5053829;28;20039;-78
2021/12/30 00:51:12;;;;;;;;;;;;;;;;;;5054007;28;19960;-78
2021/12/30 00:53:38;;;;;;;;;;;;;;;;;;5053840;28;19924;-78
2021/12/30 00:56:04;;;;;;;;;;;;;;;;;;5053679;28;19913;-77
2021/12/30 00:58:30;;;;;;;;;;;;;;;;;;5035732;28;19909;-77
2021/12/30 01:00:56;;;;;;;;;;;;;;;;;;5053299;28;20617;-77
2021/12/30 01:03:22;;;;;;;;;;;;;;;;;;5051893;28;20013;-78
2021/12/30 01:05:47;;;;;;;;;;;;;;;;;;5053493;28;19923;-78
2021/12/30 01:08:13;;;;;;;;;;;;;;;;;;5035151;28;20233;-78
2021/12/30 01:10:39;;;;;;;;;;;;;;;;;;5053368;28;19920;-78
2021/12/30 01:13:07;;;;;;;;;;;;;;;;;;5035857;28;19909;-77
2021/12/30 01:15:44;;;;;;;;;;;;;;;;;;5053457;28;19909;-77
2021/12/30 01:18:36;;;;;;;;;;;;;;;;;;5053375;28;19967;-77
2021/12/30 01:21:02;;;;;;;;;;;;;;;;;;5033482;28;19940;-77
2021/12/30 01:23:28;;;;;;;;;;;;;;;;;;5032193;28;19909;-78
2021/12/30 01:25:55;;;;;;;;;;;;;;;;;;5031740;28;20377;-78
2021/12/30 01:28:22;;;;;;;;;;;;;;;;;;5033981;28;19944;-77
2021/12/30 01:30:48;;;;;;;;;;;;;;;;;;5051745;28;20537;-78
2021/12/30 01:33:14;;;;;;;;;;;;;;;;;;5051542;28;19936;-77
2021/12/30 01:35:40;;;;;;;;;;;;;;;;;;5034767;28;19913;-78
2021/12/30 01:38:11;;;;;;;;;;;;;;;;;;5052572;28;19924;-77
2021/12/30 01:40:37;;;;;;;;;;;;;;;;;;5052419;28;19912;-78
2021/12/30 01:43:03;;;;;;;;;;;;;;;;;;5052873;28;19913;-78
2021/12/30 01:45:29;;;;;;;;;;;;;;;;;;5052955;28;19909;-78
2021/12/30 01:47:57;;;;;;;;;;;;;;;;;;5034517;28;20415;-78
2021/12/30 01:50:23;;;;;;;;;;;;;;;;;;5034529;28;19909;-77
2021/12/30 01:52:49;;;;;;;;;;;;;;;;;;5052816;28;20627;-78
2021/12/30 01:55:14;;;;;;;;;;;;;;;;;;5052704;28;19948;-78
2021/12/30 01:57:40;;;;;;;;;;;;;;;;;;5034762;28;19909;-77
2021/12/30 02:00:06;;;;;;;;;;;;;;;;;;5052937;28;19915;-78
2021/12/30 02:02:32;;;;;;;;;;;;;;;;;;5034861;28;20562;-77
2021/12/30 02:04:58;;;;;;;;;;;;;;;;;;5051286;28;19908;-77
2021/12/30 02:07:24;;;;;;;;;;;;;;;;;;5052196;28;19959;-78
2021/12/30 02:09:50;;;;;;;;;;;;;;;;;;5051176;28;19909;-78
2021/12/30 02:12:16;;;;;;;;;;;;;;;;;;5034504;28;19920;-78
2021/12/30 02:14:42;;;;;;;;;;;;;;;;;;5034760;28;19913;-77
2021/12/30 02:17:08;;;;;;;;;;;;;;;;;;5034589;28;20071;-78
2021/12/30 02:19:34;;;;;;;;;;;;;;;;;;5052514;28;20447;-78
2021/12/30 02:22:00;;;;;;;;;;;;;;;;;;5052629;28;19976;-78
2021/12/30 02:24:26;;;;;;;;;;;;;;;;;;5034301;28;19908;-78
2021/12/30 02:26:52;;;;;;;;;;;;;;;;;;5052291;28;20707;-78
2021/12/30 02:29:17;;;;;;;;;;;;;;;;;;5034036;28;19913;-78
2021/12/30 02:31:43;;;;;;;;;;;;;;;;;;5034669;28;20004;-78
2021/12/30 02:34:09;;;;;;;;;;;;;;;;;;5050562;28;20316;-78
2021/12/30 02:36:35;;;;;;;;;;;;;;;;;;5034128;28;19916;-78
2021/12/30 02:39:02;;;;;;;;;;;;;;;;;;5034084;28;19915;-78
2021/12/30 02:41:32;;;;;;;;;;;;;;;;;;5033446;28;19909;-78
2021/12/30 02:43:58;;;;;;;;;;;;;;;;;;5052075;28;19916;-78
2021/12/30 02:46:28;;;;;;;;;;;;;;;;;;5033535;28;20376;-78
2021/12/30 02:48:54;;;;;;;;;;;;;;;;;;5052453;28;20253;-77
2021/12/30 02:51:20;;;;;;;;;;;;;;;;;;5051978;28;19913;-78
2021/12/30 02:53:53;;;;;;;;;;;;;;;;;;5034252;28;19951;-78
2021/12/30 02:56:18;;;;;;;;;;;;;;;;;;5033921;28;20445;-78
2021/12/30 02:58:44;;;;;;;;;;;;;;;;;;5034088;28;19947;-78
2021/12/30 03:01:10;;;;;;;;;;;;;;;;;;5034028;28;20525;-78
2021/12/30 03:03:36;;;;;;;;;;;;;;;;;;5049850;28;19917;-78
2021/12/30 03:06:02;;;;;;;;;;;;;;;;;;5051645;28;19919;-78
2021/12/30 03:08:28;;;;;;;;;;;;;;;;;;5051682;28;19909;-78
2021/12/30 03:10:54;;;;;;;;;;;;;;;;;;5034053;28;20368;-78
2021/12/30 03:13:26;;;;;;;;;;;;;;;;;;5052014;28;19936;-79
2021/12/30 03:15:52;;;;;;;;;;;;;;;;;;5052085;28;19919;-78
2021/12/30 03:18:17;;;;;;;;;;;;;;;;;;5033567;28;19909;-78
2021/12/30 03:20:43;;;;;;;;;;;;;;;;;;5033570;28;19913;-78
2021/12/30 03:23:09;;;;;;;;;;;;;;;;;;5033710;28;19927;-79
2021/12/30 03:25:35;;;;;;;;;;;;;;;;;;5033837;28;19972;-78
2021/12/30 03:28:01;;;;;;;;;;;;;;;;;;5033449;28;19921;-78
2021/12/30 03:30:27;;;;;;;;;;;;;;;;;;5051378;28;19982;-78
2021/12/30 03:32:53;;;;;;;;;;;;;;;;;;5031919;28;20035;-78
2021/12/30 03:35:19;;;;;;;;;;;;;;;;;;5051763;28;19959;-78
2021/12/30 03:37:45;;;;;;;;;;;;;;;;;;5051636;28;19908;-78
2021/12/30 03:40:10;;;;;;;;;;;;;;;;;;5051587;28;19968;-78
2021/12/30 03:42:36;;;;;;;;;;;;;;;;;;5051756;28;20319;-78
2021/12/30 03:45:02;;;;;;;;;;;;;;;;;;5051164;28;19912;-78
2021/12/30 03:47:28;;;;;;;;;;;;;;;;;;5051360;28;19927;-78
2021/12/30 03:49:54;;;;;;;;;;;;;;;;;;5033307;28;19948;-78
2021/12/30 03:52:26;;;;;;;;;;;;;;;;;;5051939;28;19913;-78
2021/12/30 03:54:52;;;;;;;;;;;;;;;;;;5054744;28;19958;-78
2021/12/30 03:57:18;;;;;;;;;;;;;;;;;;5055116;28;20003;-77
2021/12/30 03:59:44;;;;;;;;;;;;;;;;;;5036863;28;19909;-78
2021/12/30 04:02:10;;;;;;;;;;;;;;;;;;5037035;28;20563;-78
2021/12/30 04:04:36;;;;;;;;;;;;;;;;;;5053422;28;19913;-78
2021/12/30 04:07:02;;;;;;;;;;;;;;;;;;5036795;28;20004;-78
2021/12/30 04:09:27;;;;;;;;;;;;;;;;;;5037080;28;19908;-78
2021/12/30 04:11:53;;;;;;;;;;;;;;;;;;5054557;28;20340;-78
2021/12/30 04:14:19;;;;;;;;;;;;;;;;;;5054983;28;19912;-78
2021/12/30 04:16:45;;;;;;;;;;;;;;;;;;5054668;28;19955;-78
2021/12/30 04:19:11;;;;;;;;;;;;;;;;;;5054823;28;19909;-78
2021/12/30 04:21:37;;;;;;;;;;;;;;;;;;5054606;28;20308;-77
2021/12/30 04:24:03;;;;;;;;;;;;;;;;;;5054808;28;20012;-78
2021/12/30 04:26:28;;;;;;;;;;;;;;;;;;5036616;28;19921;-78
2021/12/30 04:28:54;;;;;;;;;;;;;;;;;;5054530;28;19916;-78
2021/12/30 04:31:20;;;;;;;;;;;;;;;;;;5036688;28;19916;-78
2021/12/30 04:33:46;;;;;;;;;;;;;;;;;;5052952;28;19986;-78
2021/12/30 04:36:13;;;;;;;;;;;;;;;;;;5054651;28;19913;-78
2021/12/30 04:38:38;;;;;;;;;;;;;;;;;;5036561;28;20280;-78
2021/12/30 04:41:04;;;;;;;;;;;;;;;;;;5036666;28;19909;-78
2021/12/30 04:43:30;;;;;;;;;;;;;;;;;;5036560;28;19908;-78
2021/12/30 04:45:58;;;;;;;;;;;;;;;;;;5054633;28;19991;-78
2021/12/30 04:48:24;;;;;;;;;;;;;;;;;;5053912;28;20055;-78
2021/12/30 04:50:59;;;;;;;;;;;;;;;;;;5054333;28;19948;-78
2021/12/30 04:53:25;;;;;;;;;;;;;;;;;;5054011;28;20416;-78
2021/12/30 04:55:51;;;;;;;;;;;;;;;;;;5036242;28;20051;-78
2021/12/30 04:58:16;;;;;;;;;;;;;;;;;;5036165;28;19916;-79
2021/12/30 05:00:42;;;;;;;;;;;;;;;;;;5036068;28;19915;-78
2021/12/30 05:03:13;;;;;;;;;;;;;;;;;;5052425;28;19909;-77
2021/12/30 05:05:39;;;;;;;;;;;;;;;;;;5035842;28;19909;-78
2021/12/30 05:08:05;;;;;;;;;;;;;;;;;;5053665;28;19917;-78
2021/12/30 05:10:31;;;;;;;;;;;;;;;;;;5035953;28;19909;-78
2021/12/30 05:12:57;;;;;;;;;;;;;;;;;;5035777;28;19955;-79
2021/12/30 05:15:22;;;;;;;;;;;;;;;;;;5053858;28;19932;-78
2021/12/30 05:17:48;;;;;;;;;;;;;;;;;;5035697;28;20008;-78
2021/12/30 05:20:14;;;;;;;;;;;;;;;;;;5053426;28;20027;-78
2021/12/30 05:22:40;;;;;;;;;;;;;;;;;;5035492;28;19916;-78
2021/12/30 05:25:06;;;;;;;;;;;;;;;;;;5053620;28;19971;-78
2021/12/30 05:27:32;;;;;;;;;;;;;;;;;;5035579;28;20562;-78
2021/12/30 05:30:16;;;;;;;;;;;;;;;;;;5035510;28;19948;-78
2021/12/30 05:32:42;;;;;;;;;;;;;;;;;;5021445;28;20007;-78
2021/12/30 05:35:08;;;;;;;;;;;;;;;;;;5052340;28;20041;-78
2021/12/30 05:37:34;;;;;;;;;;;;;;;;;;5053060;28;20391;-78
2021/12/30 05:40:00;;;;;;;;;;;;;;;;;;5052913;28;19909;-78
2021/12/30 05:42:26;;;;;;;;;;;;;;;;;;5035131;28;20024;-78
2021/12/30 05:44:51;;;;;;;;;;;;;;;;;;5035158;28;19940;-78
2021/12/30 05:47:17;;;;;;;;;;;;;;;;;;5053164;28;19970;-78
2021/12/30 05:49:43;;;;;;;;;;;;;;;;;;5035388;28;19913;-78
2021/12/30 05:52:10;;;;;;;;;;;;;;;;;;5034677;28;19909;-77
2021/12/30 05:54:36;;;;;;;;;;;;;;;;;;5052889;28;19912;-78
2021/12/30 05:57:02;;;;;;;;;;;;;;;;;;5034834;28;19974;-78
2021/12/30 05:59:43;;;;;;;;;;;;;;;;;;5034912;28;19908;-78
2021/12/30 06:02:09;;;;;;;;;;;;;;;;;;5052703;28;20045;-78
2021/12/30 06:04:35;;;;;;;;;;;;;;;;;;5050823;28;19909;-77
2021/12/30 06:07:01;;;;;;;;;;;;;;;;;;5052537;28;20260;-78
2021/12/30 06:09:27;;;;;;;;;;;;;;;;;;5034767;28;20391;-78
2021/12/30 06:11:52;;;;;;;;;;;;;;;;;;5034794;28;19964;-78
2021/12/30 06:14:18;;;;;;;;;;;;;;;;;;5034735;28;19908;-78
2021/12/30 06:16:44;;;;;;;;;;;;;;;;;;5051905;28;20399;-78
2021/12/30 06:19:10;;;;;;;;;;;;;;;;;;5034621;28;19999;-78
2021/12/30 06:21:36;;;;;;;;;;;;;;;;;;5033888;28;19909;-78
2021/12/30 06:24:02;;;;;;;;;;;;;;;;;;5034329;28;20011;-77
2021/12/30 06:26:28;;;;;;;;;;;;;;;;;;5051538;28;19921;-78
2021/12/30 06:28:54;;;;;;;;;;;;;;;;;;5034276;28;19916;-78
2021/12/30 06:31:20;;;;;;;;;;;;;;;;;;5034365;28;19944;-78
2021/12/30 06:33:45;;;;;;;;;;;;;;;;;;5050654;28;19909;-78
2021/12/30 06:36:11;;;;;;;;;;;;;;;;;;5034419;28;20392;-77
2021/12/30 06:38:37;;;;;;;;;;;;;;;;;;5034141;28;19913;-78
2021/12/30 06:41:03;;;;;;;;;;;;;;;;;;5051925;28;19913;-78
2021/12/30 06:43:29;;;;;;;;;;;;;;;;;;5051987;28;20265;-78
2021/12/30 06:45:55;;;;;;;;;;;;;;;;;;5051740;28;20000;-78
2021/12/30 06:48:24;;;;;;;;;;;;;;;;;;5034026;28;19916;-78
2021/12/30 06:50:53;;;;;;;;;;;;;;;;;;5051553;28;20402;-77
2021/12/30 06:53:19;;;;;;;;;;;;;;;;;;5033135;28;19976;-78
2021/12/30 06:55:45;;;;;;;;;;;;;;;;;;5051161;28;20399;-78
2021/12/30 06:58:11;;;;;;;;;;;;;;;;;;5051345;28;19908;-78
2021/12/30 07:00:37;;;;;;;;;;;;;;;;;;5033882;28;20002;-78
2021/12/30 07:03:02;;;;;;;;;;;;;;;;;;5050327;28;20039;-78
2021/12/30 07:05:28;;;;;;;;;;;;;;;;;;5033465;28;20556;-78
2021/12/30 07:07:54;;;;;;;;;;;;;;;;;;5051233;28;19964;-78
2021/12/30 07:10:20;;;;;;;;;;;;;;;;;;5033362;28;19913;-78
2021/12/30 07:12:46;;;;;;;;;;;;;;;;;;5051452;28;19913;-78
2021/12/30 07:15:12;;;;;;;;;;;;;;;;;;5033704;28;20460;-78
2021/12/30 07:17:38;;;;;;;;;;;;;;;;;;5033561;28;19909;-78
2021/12/30 07:20:04;;;;;;;;;;;;;;;;;;5051720;28;19937;-77
2021/12/30 07:22:29;;;;;;;;;;;;;;;;;;5033274;28;20492;-78
2021/12/30 07:24:56;;;;;;;;;;;;;;;;;;5033083;28;19972;-77
2021/12/30 07:27:22;;;;;;;;;;;;;;;;;;5051840;28;19921;-78
2021/12/30 07:29:48;;;;;;;;;;;;;;;;;;5055217;28;20359;-78
2021/12/30 07:32:13;;;;;;;;;;;;;;;;;;5037648;28;19940;-78
2021/12/30 07:34:39;;;;;;;;;;;;;;;;;;5035928;28;19909;-77
2021/12/30 07:37:05;;;;;;;;;;;;;;;;;;5037416;28;19912;-78
2021/12/30 07:39:31;;;;;;;;;;;;;;;;;;5054940;28;20700;-78
2021/12/30 07:41:57;;;;;;;;;;;;;;;;;;5054922;28;19925;-78
2021/12/30 07:44:23;;;;;;;;;;;;;;;;;;5054952;28;19909;-77
2021/12/30 07:46:49;;;;;;;;;;;;;;;;;;5054747;28;20369;-78
2021/12/30 07:49:14;;;;;;;;;;;;;;;;;;5035014;28;19909;-78
2021/12/30 07:51:40;;;;;;;;;;;;;;;;;;5017566;28;19909;-78
2021/12/30 07:54:06;;;;;;;;;;;;;;;;;;5053598;28;20360;-78
2021/12/30 07:56:32;;;;;;;;;;;;;;;;;;5036837;28;19921;-78
2021/12/30 07:58:58;;;;;;;;;;;;;;;;;;5036825;28;19915;-78
2021/12/30 08:01:24;;;;;;;;;;;;;;;;;;5054605;28;20390;-78
2021/12/30 08:03:53;;;;;;;;;;;;;;;;;;5034956;28;19913;-78
2021/12/30 08:06:19;;;;;;;;;;;;;;;;;;5053887;28;19919;-78
2021/12/30 08:08:45;;;;;;;;;;;;;;;;;;5036495;28;19913;-78
2021/12/30 08:11:10;;;;;;;;;;;;;;;;;;5036651;28;19944;-78
2021/12/30 08:13:36;;;;;;;;;;;;;;;;;;5054440;28;19977;-78
2021/12/30 08:16:03;;;;;;;;;;;;;;;;;;5036754;28;19956;-78
2021/12/30 08:18:29;;;;;;;;;;;;;;;;;;5037070;28;19951;-78
2021/12/30 08:20:56;;;;;;;;;;;;;;;;;;5054239;28;20368;-78
2021/12/30 08:23:22;;;;;;;;;;;;;;;;;;5054397;28;20388;-78
2021/12/30 08:25:50;;;;;;;;;;;;;;;;;;5036150;28;19921;-78
2021/12/30 08:28:16;;;;;;;;;;;;;;;;;;5036341;28;19920;-78
2021/12/30 08:30:42;;;;;;;;;;;;;;;;;;5035974;28;19913;-78
2021/12/30 08:33:08;;;;;;;;;;;;;;;;;;5052104;28;20423;-78
2021/12/30 08:35:34;;;;;;;;;;;;;;;;;;5036050;28;19919;-77
2021/12/30 08:38:00;;;;;;;;;;;;;;;;;;5035749;28;20315;-78
2021/12/30 08:40:26;;;;;;;;;;;;;;;;;;5052909;28;19915;-78
2021/12/30 08:42:51;;;;;;;;;;;;;;;;;;5036279;28;19913;-77
2021/12/30 08:45:17;;;;;;;;;;;;;;;;;;5053543;28;20028;-78
2021/12/30 08:47:43;;;;;;;;;;;;;;;;;;5035773;28;19931;-78
2021/12/30 08:50:09;;;;;;;;;;;;;;;;;;5036093;28;19908;-78
2021/12/30 08:52:35;;;;;;;;;;;;;;;;;;5035552;28;19943;-78
2021/12/30 08:55:04;;;;;;;;;;;;;;;;;;5053343;28;19909;-78
2021/12/30 08:57:30;;;;;;;;;;;;;;;;;;5053391;28;19909;-77
2021/12/30 08:59:56;;;;;;;;;;;;;;;;;;5034895;28;20567;-78
2021/12/30 09:02:22;;;;;;;;;;;;;;;;;;5053514;28;19925;-78
2021/12/30 09:04:48;;;;;;;;;;;;;;;;;;5051975;28;20521;-77
2021/12/30 09:07:14;;;;;;;;;;;;;;;;;;5053282;28;19913;-78
2021/12/30 09:09:40;;;;;;;;;;;;;;;;;;5053459;28;19909;-78
2021/12/30 09:12:05;;;;;;;;;;;;;;;;;;5053129;28;19909;-77
2021/12/30 09:14:31;;;;;;;;;;;;;;;;;;5053380;28;19913;-78
2021/12/30 09:16:58;;;;;;;;;;;;;;;;;;5030393;28;19909;-75
2021/12/30 09:19:24;;;;;;;;;;;;;;;;;;5047324;28;19917;-77
2021/12/30 09:21:50;;;;;;;;;;;;;;;;;;5051742;28;19979;-78
2021/12/30 09:24:16;;;;;;;;;;;;;;;;;;5035199;28;19909;-78
2021/12/30 09:26:42;;;;;;;;;;;;;;;;;;5052955;28;20614;-77
2021/12/30 09:29:11;;;;;;;;;;;;;;;;;;5034696;28;19913;-78
2021/12/30 09:31:37;;;;;;;;;;;;;;;;;;5035639;28;19912;-78
2021/12/30 09:34:03;;;;;;;;;;;;;;;;;;5051992;28;20598;-78
2021/12/30 09:36:30;;;;;;;;;;;;;;;;;;5052921;28;19913;-77
2021/12/30 09:38:56;;;;;;;;;;;;;;;;;;5053226;28;19964;-78
2021/12/30 09:41:22;;;;;;;;;;;;;;;;;;5053579;28;19912;-78
2021/12/30 09:43:47;;;;;;;;;;;;;;;;;;5053169;28;19915;-78
2021/12/30 09:46:13;;;;;;;;;;;;;;;;;;5035213;28;20364;-77
2021/12/30 09:48:39;;;;;;;;;;;;;;;;;;5053187;28;19917;-78
2021/12/30 09:51:07;;;;;;;;;;;;;;;;;;5034188;28;19919;-78
2021/12/30 09:53:33;;;;;;;;;;;;;;;;;;5035390;28;19945;-78
2021/12/30 09:55:59;;;;;;;;;;;;;;;;;;5052092;28;19963;-77
2021/12/30 09:58:25;;;;;;;;;;;;;;;;;;5034296;28;19917;-77
2021/12/30 10:00:51;;;;;;;;;;;;;;;;;;5035221;28;20106;-78
2021/12/30 10:03:17;;;;;;;;;;;;;;;;;;5033579;28;19913;-77
2021/12/30 10:05:43;;;;;;;;;;;;;;;;;;5035227;28;19908;-78
2021/12/30 10:08:09;;;;;;;;;;;;;;;;;;5052757;28;19967;-78
2021/12/30 10:10:35;;;;;;;;;;;;;;;;;;5035116;28;20174;-78
2021/12/30 10:13:08;;;;;;;;;;;;;;;;;;5061969;27;19928;-74
2021/12/30 10:15:34;;;;;;;;;;;;;;;;;;5061997;28;19917;-74
2021/12/30 10:18:00;;;;;;;;;;;;;;;;;;5043097;28;19965;-74
2021/12/30 10:20:27;;;;;;;;;;;;;;;;;;5050547;28;20386;-74
2021/12/30 10:22:53;;;;;;;;;;;;;;;;;;5042161;28;19920;-74
2021/12/30 10:25:19;;;;;;;;;;;;;;;;;;5041737;28;20299;-74
2021/12/30 10:27:44;;;;;;;;;;;;;;;;;;5024248;28;19910;-74
2021/12/30 10:30:10;;;;;;;;;;;;;;;;;;5041415;28;20358;-75
2021/12/30 10:32:36;;;;;;;;;;;;;;;;;;5041471;28;19921;-74
2021/12/30 10:35:02;;;;;;;;;;;;;;;;;;5023995;28;19927;-75
2021/12/30 10:37:28;;;;;;;;;;;;;;;;;;5024668;28;19909;-74
2021/12/30 10:39:54;;;;;;;;;;;;;;;;;;5042003;28;20012;-74
2021/12/30 10:42:21;;;;;;;;;;;;;;;;;;5023880;28;20255;-75
2021/12/30 10:44:48;;;;;;;;;;;;;;;;;;5040863;28;19913;-74
2021/12/30 10:47:15;;;;;;;;;;;;;;;;;;5041476;28;20363;-74
2021/12/30 10:49:41;;;;;;;;;;;;;;;;;;5025754;28;19909;-75
2021/12/30 10:52:06;;;;;;;;;;;;;;;;;;5055124;28;19952;-73
2021/12/30 10:54:34;;;;;;;;;;;;;;;;;;5050584;28;19943;-74
2021/12/30 10:56:59;;;;;;;;;;;;;;;;;;5040520;28;19917;-75
2021/12/30 10:59:25;;;;;;;;;;;;;;;;;;5039629;28;20228;-75
2021/12/30 11:01:51;;;;;;;;;;;;;;;;;;5041137;28;19957;-74
2021/12/30 11:04:17;;;;;;;;;;;;;;;;;;5035482;28;19917;-73
2021/12/30 11:06:43;;;;;;;;;;;;;;;;;;5043289;28;19916;-73
2021/12/30 11:09:09;;;;;;;;;;;;;;;;;;5037091;28;20007;-74
2021/12/30 11:11:35;;;;;;;;;;;;;;;;;;5053564;28;20027;-74
2021/12/30 11:14:00;;;;;;;;;;;;;;;;;;5054208;28;20050;-73
2021/12/30 11:16:26;;;;;;;;;;;;;;;;;;5040074;28;19909;-72
2021/12/30 11:18:52;;;;;;;;;;;;;;;;;;5039875;28;20293;-74
2021/12/30 11:21:18;;;;;;;;;;;;;;;;;;5040601;28;19916;-73
2021/12/30 11:23:44;;;;;;;;;;;;;;;;;;5031984;28;19920;-79
2021/12/30 11:26:10;;;;;;;;;;;;;;;;;;5042501;28;19917;-73
2021/12/30 11:28:36;;;;;;;;;;;;;;;;;;5032158;28;20584;-73
2021/12/30 11:31:01;;;;;;;;;;;;;;;;;;5027552;28;19923;-74
2021/12/30 11:33:27;;;;;;;;;;;;;;;;;;5027168;28;19917;-74
2021/12/30 11:35:53;;;;;;;;;;;;;;;;;;5026406;28;19909;-74
2021/12/30 11:38:19;;;;;;;;;;;;;;;;;;5026390;28;19909;-74
2021/12/30 11:40:45;;;;;;;;;;;;;;;;;;5027319;28;19920;-74
2021/12/30 11:43:11;;;;;;;;;;;;;;;;;;5026153;28;19913;-74
2021/12/30 11:45:37;;;;;;;;;;;;;;;;;;5039135;28;20462;-74
2021/12/30 11:48:02;;;;;;;;;;;;;;;;;;5047412;28;20000;-74
2021/12/30 11:50:28;;;;;;;;;;;;;;;;;;5039171;28;20026;-74
2021/12/30 11:52:54;;;;;;;;;;;;;;;;;;5027507;28;19987;-74
2021/12/30 11:55:20;;;;;;;;;;;;;;;;;;5026041;28;20250;-73
2021/12/30 11:57:46;;;;;;;;;;;;;;;;;;5027060;28;19920;-74
2021/12/30 12:00:12;;;;;;;;;;;;;;;;;;5027170;28;20335;-74
2021/12/30 12:02:38;;;;;;;;;;;;;;;;;;5038259;28;19917;-75
2021/12/30 12:05:04;;;;;;;;;;;;;;;;;;5026469;28;19924;-74
2021/12/30 12:07:29;;;;;;;;;;;;;;;;;;5027405;28;19909;-74
2021/12/30 12:09:55;;;;;;;;;;;;;;;;;;5041976;28;20231;-74
2021/12/30 12:12:21;;;;;;;;;;;;;;;;;;5112462;27;19979;-75
2021/12/30 12:14:47;;;;;;;;;;;;;;;;;;5113422;27;19909;-75
2021/12/30 12:17:17;;;;;;;;;;;;;;;;;;5027111;28;19960;-74
2021/12/30 12:19:43;;;;;;;;;;;;;;;;;;5028068;28;19916;-74
2021/12/30 12:22:09;;;;;;;;;;;;;;;;;;5026480;28;20240;-74
2021/12/30 12:24:34;;;;;;;;;;;;;;;;;;5027131;28;19962;-73
2021/12/30 12:27:00;;;;;;;;;;;;;;;;;;5026583;28;19921;-73
2021/12/30 12:29:26;;;;;;;;;;;;;;;;;;5027154;28;20279;-74
2021/12/30 12:31:52;;;;;;;;;;;;;;;;;;5026081;28;19921;-73
2021/12/30 12:34:18;;;;;;;;;;;;;;;;;;5026134;28;19928;-74
2021/12/30 12:36:44;;;;;;;;;;;;;;;;;;5028012;28;19909;-74
2021/12/30 12:39:10;;;;;;;;;;;;;;;;;;5046072;28;19944;-74
2021/12/30 12:41:36;;;;;;;;;;;;;;;;;;5034313;28;20025;-73
2021/12/30 12:44:02;;;;;;;;;;;;;;;;;;5025730;28;19910;-74
2021/12/30 12:46:28;;;;;;;;;;;;;;;;;;5026106;28;19992;-73
2021/12/30 12:48:54;;;;;;;;;;;;;;;;;;5025754;28;19910;-73
2021/12/30 12:51:20;;;;;;;;;;;;;;;;;;5026020;28;20409;-73
2021/12/30 12:53:46;;;;;;;;;;;;;;;;;;5040465;28;19909;-74
2021/12/30 12:56:11;;;;;;;;;;;;;;;;;;5044740;28;19977;-73
2021/12/30 12:58:37;;;;;;;;;;;;;;;;;;5044356;28;19920;-74
2021/12/30 13:01:03;;;;;;;;;;;;;;;;;;5032334;28;19913;-76
2021/12/30 13:03:29;;;;;;;;;;;;;;;;;;5025180;28;19909;-74
2021/12/30 13:05:56;;;;;;;;;;;;;;;;;;5024914;28;20348;-75
2021/12/30 13:08:22;;;;;;;;;;;;;;;;;;5025338;28;19970;-73
2021/12/30 13:10:47;;;;;;;;;;;;;;;;;;5025903;28;19913;-74
2021/12/30 13:13:13;;;;;;;;;;;;;;;;;;5025631;28;20565;-74
2021/12/30 13:15:39;;;;;;;;;;;;;;;;;;5025568;28;20494;-74
2021/12/30 13:18:05;;;;;;;;;;;;;;;;;;5025241;28;19938;-74
2021/12/30 13:20:31;;;;;;;;;;;;;;;;;;5027344;28;19909;-74
2021/12/30 13:22:57;;;;;;;;;;;;;;;;;;5026375;28;19917;-75
2021/12/30 13:25:23;;;;;;;;;;;;;;;;;;5024815;28;19924;-74
2021/12/30 13:27:50;;;;;;;;;;;;;;;;;;5026838;28;19909;-74
2021/12/30 13:30:16;;;;;;;;;;;;;;;;;;5026284;28;20004;-74
2021/12/30 13:32:42;;;;;;;;;;;;;;;;;;5042010;28;20101;-73
2021/12/30 13:35:07;;;;;;;;;;;;;;;;;;5036502;28;19913;-74
2021/12/30 13:37:33;;;;;;;;;;;;;;;;;;5026265;28;20421;-75
2021/12/30 13:39:59;;;;;;;;;;;;;;;;;;5025642;28;19913;-75
2021/12/30 13:42:25;;;;;;;;;;;;;;;;;;5044190;28;19913;-74
2021/12/30 13:44:51;;;;;;;;;;;;;;;;;;5030719;28;19913;-74
2021/12/30 13:47:17;;;;;;;;;;;;;;;;;;5024299;28;20448;-75
2021/12/30 13:49:43;;;;;;;;;;;;;;;;;;5025507;28;20003;-74
2021/12/30 13:52:09;;;;;;;;;;;;;;;;;;5025749;28;19928;-75
2021/12/30 13:54:34;;;;;;;;;;;;;;;;;;5025630;28;19920;-74
2021/12/30 13:57:00;;;;;;;;;;;;;;;;;;5024958;28;19936;-75
2021/12/30 13:59:26;;;;;;;;;;;;;;;;;;5026529;28;20540;-75
2021/12/30 14:01:52;;;;;;;;;;;;;;;;;;5030709;28;20027;-75
2021/12/30 14:04:22;;;;;;;;;;;;;;;;;;5027642;28;20128;-74
2021/12/30 14:06:48;;;;;;;;;;;;;;;;;;5025103;28;19913;-74
2021/12/30 14:09:14;;;;;;;;;;;;;;;;;;5023692;28;20028;-74
2021/12/30 14:11:40;;;;;;;;;;;;;;;;;;5034633;28;20016;-75
2021/12/30 14:14:06;;;;;;;;;;;;;;;;;;5026351;28;19917;-75
2021/12/30 14:16:34;;;;;;;;;;;;;;;;;;5025482;28;20075;-75
2021/12/30 14:19:00;;;;;;;;;;;;;;;;;;5025987;28;19913;-73
2021/12/30 14:21:25;;;;;;;;;;;;;;;;;;5036482;28;19913;-74
2021/12/30 14:23:53;;;;;;;;;;;;;;;;;;5023134;28;20357;-74
2021/12/30 14:26:19;;;;;;;;;;;;;;;;;;5032455;28;19919;-75
2021/12/30 14:28:45;;;;;;;;;;;;;;;;;;5032100;28;19921;-74
2021/12/30 14:31:11;;;;;;;;;;;;;;;;;;5026572;28;19950;-75
2021/12/30 14:33:37;;;;;;;;;;;;;;;;;;5023811;28;20319;-74
2021/12/30 14:36:03;;;;;;;;;;;;;;;;;;5110873;27;19960;-75
2021/12/30 14:38:29;;;;;;;;;;;;;;;;;;5041268;28;19984;-74
2021/12/30 14:40:55;;;;;;;;;;;;;;;;;;5027737;28;19913;-74
2021/12/30 14:43:21;;;;;;;;;;;;;;;;;;5024430;28;20012;-75
2021/12/30 14:45:48;;;;;;;;;;;;;;;;;;5032565;28;19912;-75
2021/12/30 14:48:14;;;;;;;;;;;;;;;;;;5033409;28;19924;-74
2021/12/30 14:50:41;;;;;;;;;;;;;;;;;;5038150;28;19917;-75
2021/12/30 14:53:11;;;;;;;;;;;;;;;;;;5029886;28;20311;-75
2021/12/30 14:55:40;;;;;;;;;;;;;;;;;;5038917;28;19928;-74
2021/12/30 14:58:06;;;;;;;;;;;;;;;;;;5041850;28;20364;-74
2021/12/30 15:00:32;;;;;;;;;;;;;;;;;;5046352;28;19958;-74
2021/12/30 15:02:58;;;;;;;;;;;;;;;;;;5038035;28;20263;-76
2021/12/30 15:05:23;;;;;;;;;;;;;;;;;;5035128;28;19985;-74
2021/12/30 15:07:49;;;;;;;;;;;;;;;;;;5027210;28;20326;-74
2021/12/30 15:10:15;;;;;;;;;;;;;;;;;;5026906;28;19917;-76
2021/12/30 15:12:41;;;;;;;;;;;;;;;;;;5026295;28;20016;-74
2021/12/30 15:15:07;;;;;;;;;;;;;;;;;;5027039;28;19924;-75
2021/12/30 15:17:33;;;;;;;;;;;;;;;;;;5036019;28;19999;-74
2021/12/30 15:19:58;;;;;;;;;;;;;;;;;;5041572;28;19924;-74
2021/12/30 15:22:24;;;;;;;;;;;;;;;;;;5029168;28;20288;-74
2021/12/30 15:24:50;;;;;;;;;;;;;;;;;;5026897;28;19917;-74
2021/12/30 15:27:16;;;;;;;;;;;;;;;;;;5044835;28;20376;-73
2021/12/30 15:29:42;;;;;;;;;;;;;;;;;;5043545;28;19931;-73
2021/12/30 15:32:08;;;;;;;;;;;;;;;;;;5026099;28;20109;-73
2021/12/30 15:34:34;;;;;;;;;;;;;;;;;;5025858;28;20138;-75
2021/12/30 15:37:00;;;;;;;;;;;;;;;;;;5026526;28;19940;-74
2021/12/30 15:39:26;;;;;;;;;;;;;;;;;;5024644;28;19917;-74
2021/12/30 15:41:52;;;;;;;;;;;;;;;;;;5033112;28;19916;-73
2021/12/30 15:44:17;;;;;;;;;;;;;;;;;;5042261;28;20461;-74
2021/12/30 15:46:43;;;;;;;;;;;;;;;;;;5042390;28;19913;-73
2021/12/30 15:49:09;;;;;;;;;;;;;;;;;;5028806;28;19958;-74
2021/12/30 15:51:35;;;;;;;;;;;;;;;;;;5030351;28;19925;-74
2021/12/30 15:54:01;;;;;;;;;;;;;;;;;;5034089;28;20332;-74
2021/12/30 15:56:27;;;;;;;;;;;;;;;;;;5026756;28;20306;-74
2021/12/30 15:58:53;;;;;;;;;;;;;;;;;;5025795;28;19920;-74
2021/12/30 16:01:19;;;;;;;;;;;;;;;;;;5031693;28;19908;-74
2021/12/30 16:03:44;;;;;;;;;;;;;;;;;;5045930;28;19913;-74
2021/12/30 16:06:10;;;;;;;;;;;;;;;;;;5045253;28;20264;-74
2021/12/30 16:08:36;;;;;;;;;;;;;;;;;;5039047;28;19967;-74
2021/12/30 16:11:02;;;;;;;;;;;;;;;;;;5030521;28;19921;-74
2021/12/30 16:13:28;;;;;;;;;;;;;;;;;;5026192;28;19913;-74
2021/12/30 16:15:54;;;;;;;;;;;;;;;;;;5026074;28;20411;-74
2021/12/30 16:18:21;;;;;;;;;;;;;;;;;;5037587;28;19967;-74
2021/12/30 16:20:49;;;;;;;;;;;;;;;;;;5041259;28;20036;-75
2021/12/30 16:23:15;;;;;;;;;;;;;;;;;;5029727;28;20453;-74
2021/12/30 16:25:41;;;;;;;;;;;;;;;;;;5026571;28;19912;-73
2021/12/30 16:28:07;;;;;;;;;;;;;;;;;;5025998;28;19913;-73
2021/12/30 16:30:33;;;;;;;;;;;;;;;;;;5024947;28;19958;-74
2021/12/30 16:32:59;;;;;;;;;;;;;;;;;;5024429;28;19921;-74
2021/12/30 16:35:25;;;;;;;;;;;;;;;;;;5024900;28;19910;-74
2021/12/30 16:37:51;;;;;;;;;;;;;;;;;;5032431;28;20561;-73
2021/12/30 16:40:16;;;;;;;;;;;;;;;;;;5034762;28;19913;-72
2021/12/30 16:42:42;;;;;;;;;;;;;;;;;;5038596;28;20369;-73